Time,TemperatureF,DewpointF,PressureIn,WindDirection,WindDirectionDegrees,WindSpeedMPH,WindSpeedGustMPH,Humidity,HourlyPrecipIn,Conditions,Clouds,dailyrainin,SoftwareType,DateUTC
2013-04-18 00:00:00,31.3,2.0,30.25,North,4,4.0,4.0,28,0.00,,---,0.01,VWS V14.01,2013-04-18 07:00:00,
2013-04-18 00:05:00,32.2,1.2,30.25,NE,50,0.0,0.0,26,0.00,,---,0.00,VWS V14.01,2013-04-18 07:05:00,
2013-04-18 00:10:00,32.2,1.2,30.25,ESE,104,0.0,1.0,26,0.00,,---,0.00,VWS V14.01,2013-04-18 07:10:00,
2013-04-18 00:15:00,32.0,1.0,30.25,NNE,30,4.0,5.0,26,0.00,,---,0.00,VWS V14.01,2013-04-18 07:15:00,
2013-04-18 00:20:00,32.2,1.2,30.25,North,11,0.0,2.0,26,0.00,,---,0.00,VWS V14.01,2013-04-18 07:20:00,
2013-04-18 00:25:00,32.5,0.6,30.25,NE,35,2.0,2.0,25,0.00,,---,0.00,VWS V14.01,2013-04-18 07:25:00,
2013-04-18 00:30:00,32.9,0.9,30.25,ENE,62,0.0,1.0,25,0.00,,---,0.00,VWS V14.01,2013-04-18 07:30:00,
2013-04-18 00:35:00,32.5,0.6,30.25,SE,126,0.0,0.0,25,0.00,,---,0.00,VWS V14.01,2013-04-18 07:35:00,
2013-04-18 00:40:00,31.8,0.8,30.25,SE,136,2.0,2.0,26,0.00,,---,0.00,VWS V14.01,2013-04-18 07:40:00,
2013-04-18 00:45:00,31.1,1.0,30.26,SE,137,0.0,0.0,27,0.00,,---,0.00,VWS V14.01,2013-04-18 07:45:00,
2013-04-18 00:50:00,30.3,0.3,30.26,East,100,0.0,0.0,27,0.00,,---,0.00,VWS V14.01,2013-04-18 07:50:00,
2013-04-18 00:55:00,29.8,0.7,30.26,SE,133,0.0,0.0,28,0.00,,---,0.00,VWS V14.01,2013-04-18 07:55:00,
2013-04-18 01:00:00,29.6,0.5,30.26,ENE,73,0.0,0.0,28,0.00,,---,0.00,VWS V14.01,2013-04-18 08:00:00,
2013-04-18 01:05:00,29.7,0.6,30.26,SE,145,1.0,1.0,28,0.00,,---,0.00,VWS V14.01,2013-04-18 08:05:00,
2013-04-18 01:10:00,30.2,0.3,30.26,NNE,25,1.0,4.0,27,0.00,,---,0.00,VWS V14.01,2013-04-18 08:10:00,
2013-04-18 01:16:00,30.7,0.7,30.26,East,91,0.0,1.0,27,0.00,,---,0.00,VWS V14.01,2013-04-18 08:16:00,
2013-04-18 01:21:00,31.2,0.3,30.26,ENE,67,0.0,0.0,26,0.00,,---,0.00,VWS V14.01,2013-04-18 08:21:00,
2013-04-18 01:26:00,31.7,0.8,30.26,NNE,29,0.0,3.0,26,0.00,,---,0.00,VWS V14.01,2013-04-18 08:26:00,
2013-04-18 01:31:00,32.7,0.8,30.26,NE,41,4.0,4.0,25,0.00,,---,0.00,VWS V14.01,2013-04-18 08:31:00,
2013-04-18 01:36:00,33.1,0.2,30.26,NNE,21,3.0,5.0,24,0.00,,---,0.00,VWS V14.01,2013-04-18 08:36:00,
2013-04-18 01:42:00,33.3,1.3,30.26,NE,41,1.0,1.0,25,0.00,,---,0.00,VWS V14.01,2013-04-18 08:42:00,
2013-04-18 01:47:00,32.9,0.9,30.25,NE,54,0.0,0.0,25,0.00,,---,0.00,VWS V14.01,2013-04-18 08:47:00,
2013-04-18 01:52:00,32.5,0.6,30.25,NNE,30,4.0,4.0,25,0.00,,---,0.00,VWS V14.01,2013-04-18 08:52:00,
2013-04-18 01:57:00,32.8,0.9,30.25,NE,46,0.0,2.0,25,0.00,,---,0.00,VWS V14.01,2013-04-18 08:57:00,
2013-04-18 02:02:00,32.9,0.9,30.25,NE,44,1.0,1.0,25,0.00,,---,0.00,VWS V14.01,2013-04-18 09:02:00,
2013-04-18 02:07:00,32.9,0.9,30.25,NE,41,2.0,6.0,25,0.00,,---,0.00,VWS V14.01,2013-04-18 09:07:00,
2013-04-18 02:12:00,32.7,1.6,30.25,East,94,3.0,6.0,26,0.00,,---,0.00,VWS V14.01,2013-04-18 09:12:00,
2013-04-18 02:17:00,32.5,1.4,30.25,NNE,29,5.0,5.0,26,0.00,,---,0.00,VWS V14.01,2013-04-18 09:17:00,
2013-04-18 02:22:00,32.7,1.6,30.25,East,79,1.0,5.0,26,0.00,,---,0.00,VWS V14.01,2013-04-18 09:22:00,
2013-04-18 02:27:00,32.5,2.2,30.25,ENE,69,0.0,3.0,27,0.00,,---,0.00,VWS V14.01,2013-04-18 09:27:00,
2013-04-18 02:32:00,32.1,1.9,30.25,North,360,3.0,3.0,27,0.00,,---,0.00,VWS V14.01,2013-04-18 09:32:00,
2013-04-18 02:38:00,31.7,2.3,30.25,NE,49,3.0,4.0,28,0.00,,---,0.00,VWS V14.01,2013-04-18 09:38:00,
2013-04-18 02:43:00,31.4,2.8,30.25,NNE,14,0.0,0.0,29,0.00,,---,0.00,VWS V14.01,2013-04-18 09:43:00,
2013-04-18 02:48:00,30.9,2.4,30.25,East,88,0.0,0.0,29,0.00,,---,0.00,VWS V14.01,2013-04-18 09:48:00,
2013-04-18 02:53:00,30.3,2.6,30.25,NE,35,2.0,2.0,30,0.00,,---,0.00,VWS V14.01,2013-04-18 09:53:00,
2013-04-18 02:58:00,30.0,3.0,30.25,NNE,29,0.0,1.0,31,0.00,,---,0.00,VWS V14.01,2013-04-18 09:58:00,
2013-04-18 03:03:00,29.7,2.8,30.25,North,4,2.0,2.0,31,0.00,,---,0.00,VWS V14.01,2013-04-18 10:03:00,
2013-04-18 03:08:00,29.6,2.7,30.25,East,97,0.0,0.0,31,0.00,,---,0.00,VWS V14.01,2013-04-18 10:08:00,
2013-04-18 03:13:00,29.2,3.0,30.25,East,100,0.0,0.0,32,0.00,,---,0.00,VWS V14.01,2013-04-18 10:13:00,
2013-04-18 03:18:00,29.0,3.5,30.25,East,89,0.0,2.0,33,0.00,,---,0.00,VWS V14.01,2013-04-18 10:18:00,
2013-04-18 03:23:00,28.9,3.4,30.26,ENE,59,0.0,0.0,33,0.00,,---,0.00,VWS V14.01,2013-04-18 10:23:00,
2013-04-18 03:28:00,28.8,4.0,30.26,NE,47,2.0,2.0,34,0.00,,---,0.00,VWS V14.01,2013-04-18 10:28:00,
2013-04-18 03:33:00,28.9,4.7,30.25,NNE,21,2.0,2.0,35,0.00,,---,0.00,VWS V14.01,2013-04-18 10:33:00,
2013-04-18 03:38:00,29.1,4.9,30.25,ENE,69,1.0,4.0,35,0.00,,---,0.00,VWS V14.01,2013-04-18 10:38:00,
2013-04-18 03:43:00,29.7,4.8,30.25,NNE,32,3.0,3.0,34,0.00,,---,0.00,VWS V14.01,2013-04-18 10:43:00,
2013-04-18 03:48:00,29.9,5.0,30.25,East,86,0.0,1.0,34,0.00,,---,0.00,VWS V14.01,2013-04-18 10:48:00,
2013-04-18 03:53:00,29.8,4.9,30.26,ENE,76,0.0,0.0,34,0.00,,---,0.00,VWS V14.01,2013-04-18 10:53:00,
2013-04-18 03:58:00,29.3,4.4,30.26,ESE,121,0.0,0.0,34,0.00,,---,0.00,VWS V14.01,2013-04-18 10:58:00,
2013-04-18 04:03:00,28.8,4.6,30.26,East,88,2.0,2.0,35,0.00,,---,0.00,VWS V14.01,2013-04-18 11:03:00,
2013-04-18 04:09:00,28.4,4.9,30.26,ENE,73,0.0,0.0,36,0.00,,---,0.00,VWS V14.01,2013-04-18 11:09:00,
2013-04-18 04:14:00,28.0,4.5,30.26,East,84,0.0,0.0,36,0.00,,---,0.00,VWS V14.01,2013-04-18 11:14:00,
2013-04-18 04:19:00,27.7,4.8,30.26,East,81,0.0,0.0,37,0.00,,---,0.00,VWS V14.01,2013-04-18 11:19:00,
2013-04-18 04:24:00,27.6,4.8,30.26,NE,37,0.0,1.0,37,0.00,,---,0.00,VWS V14.01,2013-04-18 11:24:00,
2013-04-18 04:29:00,27.5,4.7,30.27,SE,139,0.0,1.0,37,0.00,,---,0.00,VWS V14.01,2013-04-18 11:29:00,
2013-04-18 04:34:00,27.4,4.6,30.26,East,80,1.0,1.0,37,0.00,,---,0.00,VWS V14.01,2013-04-18 11:34:00,
2013-04-18 04:39:00,27.4,4.6,30.27,East,93,0.0,0.0,37,0.00,,---,0.00,VWS V14.01,2013-04-18 11:39:00,
2013-04-18 04:44:00,27.3,4.5,30.26,East,97,0.0,0.0,37,0.00,,---,0.00,VWS V14.01,2013-04-18 11:44:00,
2013-04-18 04:49:00,27.2,4.4,30.27,NNE,23,0.0,0.0,37,0.00,,---,0.00,VWS V14.01,2013-04-18 11:49:00,
2013-04-18 04:54:00,27.0,4.8,30.27,NE,56,4.0,4.0,38,0.00,,---,0.00,VWS V14.01,2013-04-18 11:54:00,
2013-04-18 04:59:00,26.9,4.7,30.27,SE,124,0.0,1.0,38,0.00,,---,0.00,VWS V14.01,2013-04-18 11:59:00,
2013-04-18 05:04:00,26.8,4.6,30.27,ENE,58,1.0,1.0,38,0.00,,---,0.00,VWS V14.01,2013-04-18 12:04:00,
2013-04-18 05:09:00,26.9,4.7,30.27,East,98,1.0,1.0,38,0.00,,---,0.00,VWS V14.01,2013-04-18 12:09:00,
2013-04-18 05:14:00,27.1,4.9,30.27,East,94,0.0,0.0,38,0.00,,---,0.00,VWS V14.01,2013-04-18 12:14:00,
2013-04-18 05:19:00,27.0,4.8,30.27,East,79,0.0,1.0,38,0.00,,---,0.00,VWS V14.01,2013-04-18 12:19:00,
2013-04-18 05:24:00,27.1,4.9,30.27,NE,49,0.0,0.0,38,0.00,,---,0.00,VWS V14.01,2013-04-18 12:24:00,
2013-04-18 05:29:00,27.2,5.0,30.27,NE,39,0.0,1.0,38,0.00,,---,0.00,VWS V14.01,2013-04-18 12:29:00,
2013-04-18 05:34:00,27.2,5.0,30.27,ENE,75,0.0,0.0,38,0.00,,---,0.00,VWS V14.01,2013-04-18 12:34:00,
2013-04-18 05:39:00,27.1,4.3,30.27,South,173,0.0,0.0,37,0.00,,---,0.00,VWS V14.01,2013-04-18 12:39:00,
2013-04-18 05:45:00,27.1,4.3,30.27,ENE,65,0.0,0.0,37,0.00,,---,0.00,VWS V14.01,2013-04-18 12:45:00,
2013-04-18 05:50:00,27.0,4.8,30.27,NE,47,0.0,3.0,38,0.00,,---,0.00,VWS V14.01,2013-04-18 12:50:00,
2013-04-18 05:55:00,27.0,4.8,30.28,ENE,60,0.0,0.0,38,0.00,,---,0.00,VWS V14.01,2013-04-18 12:55:00,
2013-04-18 06:00:00,26.9,4.7,30.28,ESE,103,0.0,0.0,38,0.00,,---,0.00,VWS V14.01,2013-04-18 13:00:00,
2013-04-18 06:05:00,26.6,4.4,30.28,East,82,0.0,0.0,38,0.00,,---,0.00,VWS V14.01,2013-04-18 13:05:00,
2013-04-18 06:10:00,26.5,4.3,30.28,ESE,108,0.0,0.0,38,0.00,,---,0.00,VWS V14.01,2013-04-18 13:10:00,
2013-04-18 06:15:00,26.6,4.4,30.28,ESE,106,0.0,0.0,38,0.00,,---,0.00,VWS V14.01,2013-04-18 13:15:00,
2013-04-18 06:20:00,26.6,4.4,30.29,East,88,0.0,0.0,38,0.00,,---,0.00,VWS V14.01,2013-04-18 13:20:00,
2013-04-18 06:25:00,26.6,4.4,30.29,SSE,149,0.0,0.0,38,0.00,,---,0.00,VWS V14.01,2013-04-18 13:25:00,
2013-04-18 06:30:00,26.6,4.4,30.29,East,100,0.0,0.0,38,0.00,,---,0.00,VWS V14.01,2013-04-18 13:30:00,
2013-04-18 06:35:00,26.6,4.4,30.30,East,91,0.0,0.0,38,0.00,,---,0.00,VWS V14.01,2013-04-18 13:35:00,
2013-04-18 06:40:00,26.7,4.5,30.30,East,82,0.0,1.0,38,0.00,,---,0.00,VWS V14.01,2013-04-18 13:40:00,
2013-04-18 06:45:00,26.9,4.1,30.30,ESE,113,0.0,0.0,37,0.00,,---,0.00,VWS V14.01,2013-04-18 13:45:00,
2013-04-18 06:50:00,27.1,4.9,30.31,East,83,0.0,0.0,38,0.00,,---,0.00,VWS V14.01,2013-04-18 13:50:00,
2013-04-18 06:56:00,26.7,5.1,30.31,East,83,0.0,0.0,39,0.00,,---,0.00,VWS V14.01,2013-04-18 13:56:00,
2013-04-18 07:01:00,26.5,4.3,30.31,East,83,0.0,0.0,38,0.00,,---,0.00,VWS V14.01,2013-04-18 14:01:00,
2013-04-18 07:06:00,27.0,4.2,30.31,East,100,2.0,2.0,37,0.00,,---,0.00,VWS V14.01,2013-04-18 14:06:00,
2013-04-18 07:11:00,27.7,5.4,30.31,North,1,0.0,0.0,38,0.00,,---,0.00,VWS V14.01,2013-04-18 14:11:00,
2013-04-18 07:16:00,28.2,5.3,30.31,North,1,0.0,0.0,37,0.00,,---,0.00,VWS V14.01,2013-04-18 14:16:00,
2013-04-18 07:21:00,29.9,5.6,30.31,NE,40,0.0,0.0,35,0.00,,---,0.00,VWS V14.01,2013-04-18 14:21:00,
2013-04-18 07:26:00,31.3,4.9,30.31,NE,36,1.0,1.0,32,0.00,,---,0.00,VWS V14.01,2013-04-18 14:26:00,
2013-04-18 07:31:00,31.8,4.6,30.31,NNE,25,1.0,1.0,31,0.00,,---,0.00,VWS V14.01,2013-04-18 14:31:00,
2013-04-18 07:36:00,31.6,4.4,30.31,SSW,201,0.0,1.0,31,0.00,,---,0.00,VWS V14.01,2013-04-18 14:36:00,
2013-04-18 07:41:00,31.5,4.4,30.32,East,84,1.0,2.0,31,0.00,,---,0.00,VWS V14.01,2013-04-18 14:41:00,
2013-04-18 07:46:00,31.6,4.4,30.32,NNE,21,4.0,4.0,31,0.00,,---,0.00,VWS V14.01,2013-04-18 14:46:00,
2013-04-18 07:51:00,31.7,3.8,30.32,NNE,30,0.0,4.0,30,0.00,,---,0.00,VWS V14.01,2013-04-18 14:51:00,
2013-04-18 07:56:00,32.1,3.4,30.32,North,6,7.0,8.0,29,0.00,,---,0.00,VWS V14.01,2013-04-18 14:56:00,
2013-04-18 08:02:00,32.9,3.4,30.32,NE,44,3.0,3.0,28,0.00,,---,0.00,VWS V14.01,2013-04-18 15:02:00,
2013-04-18 08:08:00,33.1,3.5,30.32,SSE,148,2.0,4.0,28,0.00,,---,0.00,VWS V14.01,2013-04-18 15:08:00,
2013-04-18 08:13:00,33.3,3.7,30.32,NE,37,1.0,1.0,28,0.00,,---,0.00,VWS V14.01,2013-04-18 15:13:00,
2013-04-18 08:18:00,34.1,3.6,30.32,ENE,74,0.0,3.0,27,0.00,,---,0.00,VWS V14.01,2013-04-18 15:18:00,
2013-04-18 08:23:00,34.5,4.0,30.32,North,359,1.0,1.0,27,0.00,,---,0.00,VWS V14.01,2013-04-18 15:23:00,
2013-04-18 08:28:00,34.3,3.8,30.32,NE,39,4.0,4.0,27,0.00,,---,0.00,VWS V14.01,2013-04-18 15:28:00,
2013-04-18 08:33:00,34.5,3.2,30.32,NE,46,2.0,3.0,26,0.00,,---,0.00,VWS V14.01,2013-04-18 15:33:00,
2013-04-18 08:38:00,35.1,4.5,30.31,ENE,63,0.0,1.0,27,0.00,,---,0.00,VWS V14.01,2013-04-18 15:38:00,
2013-04-18 08:43:00,35.3,3.8,30.31,ESE,119,0.0,1.0,26,0.00,,---,0.00,VWS V14.01,2013-04-18 15:43:00,
2013-04-18 08:48:00,35.8,3.4,30.31,ESE,114,1.0,2.0,25,0.00,,---,0.00,VWS V14.01,2013-04-18 15:48:00,
2013-04-18 08:53:00,36.3,3.0,30.31,NNE,29,0.0,1.0,24,0.00,,---,0.00,VWS V14.01,2013-04-18 15:53:00,
2013-04-18 08:58:00,36.8,3.4,30.32,North,11,4.0,4.0,24,0.00,,---,0.00,VWS V14.01,2013-04-18 15:58:00,
2013-04-18 09:03:00,36.1,3.7,30.31,East,86,0.0,2.0,25,0.00,,---,0.00,VWS V14.01,2013-04-18 16:03:00,
2013-04-18 09:08:00,36.0,3.6,30.31,ENE,66,2.0,10.0,25,0.00,,---,0.00,VWS V14.01,2013-04-18 16:08:00,
2013-04-18 09:13:00,36.1,3.7,30.31,NNE,29,2.0,2.0,25,0.00,,---,0.00,VWS V14.01,2013-04-18 16:13:00,
2013-04-18 09:18:00,36.2,3.8,30.31,NE,36,2.0,4.0,25,0.00,,---,0.00,VWS V14.01,2013-04-18 16:18:00,
2013-04-18 09:23:00,35.8,3.4,30.31,NNE,13,1.0,2.0,25,0.00,,---,0.00,VWS V14.01,2013-04-18 16:23:00,
2013-04-18 09:28:00,36.2,3.8,30.31,NNE,19,5.0,6.0,25,0.00,,---,0.00,VWS V14.01,2013-04-18 16:28:00,
2013-04-18 09:37:00,36.8,4.3,30.31,ENE,65,1.0,2.0,25,0.00,,---,0.00,VWS V14.01,2013-04-18 16:37:00,
2013-04-18 09:42:00,37.8,3.3,30.31,ESE,119,1.0,4.0,23,0.00,,---,0.00,VWS V14.01,2013-04-18 16:42:00,
2013-04-18 09:47:00,37.9,1.5,30.30,NNE,28,7.0,7.0,21,0.00,,---,0.00,VWS V14.01,2013-04-18 16:47:00,
2013-04-18 09:53:00,37.7,1.3,30.31,NNE,33,5.0,10.0,21,0.00,,---,0.00,VWS V14.01,2013-04-18 16:53:00,
2013-04-18 09:58:00,37.1,0.8,30.31,NE,55,4.0,6.0,21,0.00,,---,0.00,VWS V14.01,2013-04-18 16:58:00,
2013-04-18 10:03:00,36.7,1.5,30.31,North,10,3.0,4.0,22,0.00,,---,0.00,VWS V14.01,2013-04-18 17:03:00,
2013-04-18 10:08:00,37.3,2.0,30.31,NE,41,0.0,10.0,22,0.00,,---,0.00,VWS V14.01,2013-04-18 17:08:00,
2013-04-18 10:13:00,38.1,2.6,30.31,NNE,28,4.0,4.0,22,0.00,,---,0.00,VWS V14.01,2013-04-18 17:13:00,
2013-04-18 10:18:00,38.3,2.8,30.31,NNE,26,1.0,3.0,22,0.00,,---,0.00,VWS V14.01,2013-04-18 17:18:00,
2013-04-18 10:23:00,38.0,1.5,30.31,NE,52,4.0,4.0,21,0.00,,---,0.00,VWS V14.01,2013-04-18 17:23:00,
2013-04-18 10:28:00,37.9,1.5,30.31,ESE,113,3.0,7.0,21,0.00,,---,0.00,VWS V14.01,2013-04-18 17:28:00,
2013-04-18 10:33:00,38.4,2.9,30.32,NE,46,1.0,1.0,22,0.00,,---,0.00,VWS V14.01,2013-04-18 17:33:00,
2013-04-18 10:38:00,38.9,1.3,30.32,NNW,328,0.0,5.0,20,0.00,,---,0.00,VWS V14.01,2013-04-18 17:38:00,
2013-04-18 10:43:00,38.0,1.5,30.32,NE,56,1.0,4.0,21,0.00,,---,0.00,VWS V14.01,2013-04-18 17:43:00,
2013-04-18 10:48:00,38.4,2.9,30.32,NNE,25,0.0,3.0,22,0.00,,---,0.00,VWS V14.01,2013-04-18 17:48:00,
2013-04-18 10:53:00,38.8,2.2,30.32,SE,134,0.0,1.0,21,0.00,,---,0.00,VWS V14.01,2013-04-18 17:53:00,
2013-04-18 10:58:00,39.4,4.7,30.32,North,11,3.0,4.0,23,0.00,,---,0.00,VWS V14.01,2013-04-18 17:58:00,
2013-04-18 11:03:00,40.1,2.3,30.32,South,172,1.0,2.0,20,0.00,,---,0.00,VWS V14.01,2013-04-18 18:03:00,
2013-04-18 11:08:00,40.2,2.3,30.32,NNE,18,7.0,7.0,20,0.00,,---,0.00,VWS V14.01,2013-04-18 18:08:00,
2013-04-18 11:13:00,39.9,2.1,30.31,NNW,329,0.0,1.0,20,0.00,,---,0.00,VWS V14.01,2013-04-18 18:13:00,
2013-04-18 11:18:00,40.3,1.3,30.31,NE,50,0.0,1.0,19,0.00,,---,0.00,VWS V14.01,2013-04-18 18:18:00,
2013-04-18 11:23:00,40.6,0.4,30.31,NNE,31,4.0,4.0,17,0.00,,---,0.00,VWS V14.01,2013-04-18 18:23:00,
2013-04-18 11:28:00,40.6,0.4,30.31,NNE,31,0.0,5.0,18,0.00,,---,0.00,VWS V14.01,2013-04-18 18:28:00,
2013-04-18 11:34:00,41.1,0.8,30.31,ENE,71,0.0,1.0,18,0.00,,---,0.00,VWS V14.01,2013-04-18 18:34:00,
2013-04-18 11:39:00,41.2,0.9,30.31,NE,43,1.0,3.0,18,0.00,,---,0.00,VWS V14.01,2013-04-18 18:39:00,
2013-04-18 11:44:00,41.4,0.9,30.31,NE,55,1.0,3.0,17,0.00,,---,0.00,VWS V14.01,2013-04-18 18:44:00,
2013-04-18 11:49:00,42.5,0.8,30.31,ENE,66,3.0,3.0,17,0.00,,---,0.00,VWS V14.01,2013-04-18 18:49:00,
2013-04-18 11:54:00,42.1,0.9,30.30,ENE,71,2.0,3.0,16,0.00,,---,0.00,VWS V14.01,2013-04-18 18:54:00,
2013-04-18 11:59:00,42.4,0.7,30.30,NNE,30,3.0,5.0,16,0.00,,---,0.00,VWS V14.01,2013-04-18 18:59:00,
2013-04-18 12:04:00,41.6,0.4,30.30,NNE,33,3.0,3.0,16,0.00,,---,0.00,VWS V14.01,2013-04-18 19:04:00,
2013-04-18 12:09:00,42.1,1.7,30.30,NW,318,4.0,4.0,18,0.00,,---,0.00,VWS V14.01,2013-04-18 19:09:00,
2013-04-18 12:14:00,42.7,1.0,30.30,East,100,2.0,8.0,16,0.00,,---,0.00,VWS V14.01,2013-04-18 19:14:00,
2013-04-18 12:20:00,42.4,0.7,30.30,ENE,77,2.0,2.0,17,0.00,,---,0.00,VWS V14.01,2013-04-18 19:20:00,
2013-04-18 12:25:00,42.5,2.0,30.30,ENE,57,1.0,1.0,18,0.00,,---,0.00,VWS V14.01,2013-04-18 19:25:00,
2013-04-18 12:30:00,42.3,1.8,30.29,NNE,27,3.0,3.0,18,0.00,,---,0.00,VWS V14.01,2013-04-18 19:30:00,
2013-04-18 12:35:00,42.5,0.8,30.30,East,91,0.0,4.0,17,0.00,,---,0.00,VWS V14.01,2013-04-18 19:35:00,
2013-04-18 12:40:00,42.9,1.1,30.30,ENE,72,2.0,2.0,17,0.00,,---,0.00,VWS V14.01,2013-04-18 19:40:00,
2013-04-18 12:45:00,43.0,1.2,30.29,NE,41,0.0,1.0,16,0.00,,---,0.00,VWS V14.01,2013-04-18 19:45:00,
2013-04-18 12:50:00,43.4,0.2,30.29,ESE,118,2.0,3.0,16,0.00,,---,0.00,VWS V14.01,2013-04-18 19:50:00,
2013-04-18 12:55:00,43.3,0.1,30.29,South,176,1.0,5.0,16,0.00,,---,0.00,VWS V14.01,2013-04-18 19:55:00,
2013-04-18 13:00:00,43.8,0.5,30.29,NNE,33,3.0,3.0,16,0.00,,---,0.00,VWS V14.01,2013-04-18 20:00:00,
2013-04-18 13:05:00,43.3,0.4,30.29,NNE,31,2.0,6.0,15,0.00,,---,0.00,VWS V14.01,2013-04-18 20:05:00,
2013-04-18 13:10:00,43.0,0.1,30.29,NNE,27,6.0,6.0,15,0.00,,---,0.00,VWS V14.01,2013-04-18 20:10:00,
2013-04-18 13:15:00,42.4,0.8,30.29,East,81,0.0,3.0,16,0.00,,---,0.00,VWS V14.01,2013-04-18 20:15:00,
2013-04-18 13:20:00,42.7,0.9,30.29,SSW,207,0.0,3.0,16,0.00,,---,0.00,VWS V14.01,2013-04-18 20:20:00,
2013-04-18 13:25:00,43.3,1.4,30.28,ENE,69,3.0,5.0,14,0.00,,---,0.00,VWS V14.01,2013-04-18 20:25:00,
2013-04-18 13:31:00,43.7,1.4,30.29,NNW,347,3.0,6.0,14,0.00,,---,0.00,VWS V14.01,2013-04-18 20:31:00,
2013-04-18 13:36:00,43.7,1.4,30.29,North,4,3.0,3.0,14,0.00,,---,0.00,VWS V14.01,2013-04-18 20:36:00,
2013-04-18 13:41:00,44.0,0.6,30.29,SE,142,1.0,3.0,15,0.00,,---,0.00,VWS V14.01,2013-04-18 20:41:00,
2013-04-18 13:46:00,44.3,0.9,30.28,ENE,63,3.0,3.0,15,0.00,,---,0.00,VWS V14.01,2013-04-18 20:46:00,
2013-04-18 13:51:00,44.3,0.9,30.28,North,4,1.0,2.0,16,0.00,,---,0.00,VWS V14.01,2013-04-18 20:51:00,
2013-04-18 13:57:00,45.3,0.4,30.28,NNE,15,2.0,2.0,15,0.00,,---,0.00,VWS V14.01,2013-04-18 20:57:00,
2013-04-18 14:02:00,46.3,0.7,30.28,NE,53,2.0,5.0,13,0.00,,---,0.00,VWS V14.01,2013-04-18 21:02:00,
2013-04-18 14:07:00,45.2,0.7,30.28,North,10,5.0,8.0,13,0.00,,---,0.00,VWS V14.01,2013-04-18 21:07:00,
2013-04-18 14:12:00,44.9,0.7,30.28,NNE,27,2.0,3.0,13,0.00,,---,0.00,VWS V14.01,2013-04-18 21:12:00,
2013-04-18 14:17:00,45.1,0.7,30.28,NE,37,1.0,4.0,14,0.00,,---,0.00,VWS V14.01,2013-04-18 21:17:00,
2013-04-18 14:22:00,45.1,0.7,30.27,NNE,16,2.0,5.0,14,0.00,,---,0.00,VWS V14.01,2013-04-18 21:22:00,
2013-04-18 14:27:00,45.5,0.4,30.27,North,5,3.0,5.0,13,0.00,,---,0.00,VWS V14.01,2013-04-18 21:27:00,
2013-04-18 14:32:00,45.3,0.4,30.27,East,98,2.0,5.0,13,0.00,,---,0.00,VWS V14.01,2013-04-18 21:32:00,
2013-04-18 14:37:00,45.5,0.4,30.27,ENE,75,3.0,4.0,12,0.00,,---,0.00,VWS V14.01,2013-04-18 21:37:00,
2013-04-18 14:42:00,45.4,0.4,30.27,NE,43,0.0,4.0,13,0.00,,---,0.00,VWS V14.01,2013-04-18 21:42:00,
2013-04-18 14:47:00,45.5,0.4,30.26,SE,135,0.0,2.0,12,0.00,,---,0.00,VWS V14.01,2013-04-18 21:47:00,
2013-04-18 14:52:00,46.1,0.4,30.26,NNE,13,3.0,10.0,12,0.00,,---,0.00,VWS V14.01,2013-04-18 21:52:00,
2013-04-18 14:58:00,46.4,0.4,30.26,East,100,2.0,3.0,12,0.00,,---,0.00,VWS V14.01,2013-04-18 21:58:00,
2013-04-18 15:03:00,46.4,0.4,30.26,South,187,1.0,7.0,11,0.00,,---,0.00,VWS V14.01,2013-04-18 22:03:00,
2013-04-18 15:08:00,46.2,0.4,30.26,NE,46,4.0,6.0,12,0.00,,---,0.00,VWS V14.01,2013-04-18 22:08:00,
2013-04-18 15:13:00,46.3,0.4,30.25,NNE,12,3.0,3.0,13,0.00,,---,0.00,VWS V14.01,2013-04-18 22:13:00,
2013-04-18 15:18:00,46.7,0.4,30.25,NE,36,4.0,5.0,12,0.00,,---,0.00,VWS V14.01,2013-04-18 22:18:00,
2013-04-18 15:23:00,46.9,0.4,30.25,NE,39,3.0,4.0,12,0.00,,---,0.00,VWS V14.01,2013-04-18 22:23:00,
2013-04-18 15:28:00,46.9,0.4,30.25,East,88,2.0,3.0,11,0.00,,---,0.00,VWS V14.01,2013-04-18 22:28:00,
2013-04-18 15:33:00,46.8,0.4,30.24,North,352,1.0,1.0,12,0.00,,---,0.00,VWS V14.01,2013-04-18 22:33:00,
2013-04-18 15:38:00,46.5,0.4,30.24,ESE,103,3.0,3.0,12,0.00,,---,0.00,VWS V14.01,2013-04-18 22:38:00,
2013-04-18 15:43:00,46.8,0.4,30.24,NNW,335,2.0,2.0,13,0.00,,---,0.00,VWS V14.01,2013-04-18 22:43:00,
2013-04-18 15:48:00,47.3,0.4,30.24,NNE,27,8.0,8.0,12,0.00,,---,0.00,VWS V14.01,2013-04-18 22:48:00,
2013-04-18 15:53:00,47.1,0.4,30.24,NE,49,2.0,2.0,12,0.00,,---,0.00,VWS V14.01,2013-04-18 22:53:00,
2013-04-18 15:58:00,47.5,0.4,30.24,NNE,21,4.0,5.0,12,0.00,,---,0.00,VWS V14.01,2013-04-18 22:58:00,
2013-04-18 16:03:00,47.8,0.4,30.24,NE,45,2.0,2.0,12,0.00,,---,0.00,VWS V14.01,2013-04-18 23:03:00,
2013-04-18 16:08:00,47.7,0.4,30.24,ENE,76,0.0,3.0,11,0.00,,---,0.00,VWS V14.01,2013-04-18 23:08:00,
2013-04-18 16:13:00,47.6,0.4,30.23,NE,55,2.0,4.0,11,0.00,,---,0.00,VWS V14.01,2013-04-18 23:13:00,
2013-04-18 16:18:00,48.0,0.4,30.23,NE,53,1.0,6.0,11,0.00,,---,0.00,VWS V14.01,2013-04-18 23:18:00,
2013-04-18 16:23:00,48.8,0.4,30.23,NE,44,2.0,2.0,11,0.00,,---,0.00,VWS V14.01,2013-04-18 23:23:00,
2013-04-18 16:28:00,48.6,0.4,30.23,East,98,2.0,3.0,12,0.00,,---,0.00,VWS V14.01,2013-04-18 23:28:00,
2013-04-18 16:33:00,48.8,0.4,30.23,NNE,13,1.0,1.0,12,0.00,,---,0.00,VWS V14.01,2013-04-18 23:33:00,
2013-04-18 16:38:00,49.1,0.4,30.23,East,79,3.0,3.0,12,0.00,,---,0.00,VWS V14.01,2013-04-18 23:38:00,
2013-04-18 16:43:00,49.7,0.4,30.23,NE,55,1.0,4.0,10,0.00,,---,0.00,VWS V14.01,2013-04-18 23:43:00,
2013-04-18 16:48:00,49.6,0.4,30.23,NE,41,4.0,4.0,9,0.00,,---,0.00,VWS V14.01,2013-04-18 23:48:00,
2013-04-18 16:53:00,49.1,0.4,30.24,NNE,33,6.0,6.0,11,0.00,,---,0.00,VWS V14.01,2013-04-18 23:53:00,
2013-04-18 16:58:00,48.6,0.4,30.24,East,88,0.0,1.0,11,0.00,,---,0.00,VWS V14.01,2013-04-18 23:58:00,
2013-04-18 17:04:00,48.8,0.4,30.24,ENE,60,3.0,5.0,11,0.00,,---,0.00,VWS V14.01,2013-04-19 00:04:00,
2013-04-18 17:09:00,49.1,0.4,30.24,NE,36,4.0,4.0,11,0.00,,---,0.00,VWS V14.01,2013-04-19 00:09:00,
2013-04-18 17:14:00,48.8,0.4,30.24,ESE,106,1.0,4.0,11,0.00,,---,0.00,VWS V14.01,2013-04-19 00:14:00,
2013-04-18 17:19:00,48.7,0.4,30.23,NE,53,1.0,2.0,11,0.00,,---,0.00,VWS V14.01,2013-04-19 00:19:00,
2013-04-18 17:24:00,48.6,0.4,30.23,ENE,64,1.0,5.0,12,0.00,,---,0.00,VWS V14.01,2013-04-19 00:24:00,
2013-04-18 17:29:00,48.3,0.4,30.24,NE,52,0.0,3.0,11,0.00,,---,0.00,VWS V14.01,2013-04-19 00:29:00,
2013-04-18 17:35:00,48.4,0.4,30.24,NNE,30,3.0,5.0,11,0.00,,---,0.00,VWS V14.01,2013-04-19 00:35:00,
2013-04-18 17:40:00,48.0,0.4,30.24,NNE,27,0.0,1.0,10,0.00,,---,0.00,VWS V14.01,2013-04-19 00:40:00,
2013-04-18 17:46:00,47.9,0.4,30.24,NNE,33,3.0,3.0,10,0.00,,---,0.00,VWS V14.01,2013-04-19 00:46:00,
2013-04-18 17:51:00,47.6,0.4,30.24,NNE,29,0.0,1.0,11,0.00,,---,0.00,VWS V14.01,2013-04-19 00:51:00,
2013-04-18 17:56:00,47.4,0.4,30.23,ESE,112,0.0,0.0,12,0.00,,---,0.00,VWS V14.01,2013-04-19 00:56:00,
2013-04-18 18:01:00,47.7,0.4,30.24,NNE,33,0.0,2.0,12,0.00,,---,0.00,VWS V14.01,2013-04-19 01:01:00,
2013-04-18 18:06:00,47.1,0.4,30.24,NE,37,0.0,1.0,11,0.00,,---,0.00,VWS V14.01,2013-04-19 01:06:00,
2013-04-18 18:11:00,46.5,0.4,30.24,NE,37,0.0,0.0,12,0.00,,---,0.00,VWS V14.01,2013-04-19 01:11:00,
2013-04-18 18:16:00,46.2,0.4,30.24,NNE,16,1.0,3.0,11,0.00,,---,0.00,VWS V14.01,2013-04-19 01:16:00,
2013-04-18 18:21:00,45.8,0.4,30.24,NE,41,1.0,1.0,12,0.00,,---,0.00,VWS V14.01,2013-04-19 01:21:00,
2013-04-18 18:26:00,45.5,0.4,30.24,ENE,69,0.0,4.0,12,0.00,,---,0.00,VWS V14.01,2013-04-19 01:26:00,
2013-04-18 18:31:00,45.0,0.4,30.24,ENE,76,0.0,1.0,12,0.00,,---,0.00,VWS V14.01,2013-04-19 01:31:00,
2013-04-18 18:36:00,44.5,0.4,30.24,East,94,0.0,1.0,13,0.00,,---,0.00,VWS V14.01,2013-04-19 01:36:00,
2013-04-18 18:41:00,44.2,0.4,30.24,NE,34,1.0,1.0,13,0.00,,---,0.00,VWS V14.01,2013-04-19 01:41:00,
2013-04-18 18:46:00,43.9,0.4,30.24,NE,41,0.0,2.0,13,0.00,,---,0.00,VWS V14.01,2013-04-19 01:46:00,
2013-04-18 18:51:00,43.7,0.4,30.24,NE,39,0.0,0.0,13,0.00,,---,0.00,VWS V14.01,2013-04-19 01:51:00,
2013-04-18 18:56:00,43.8,0.4,30.24,NE,39,0.0,0.0,13,0.00,,---,0.00,VWS V14.01,2013-04-19 01:56:00,
2013-04-18 19:01:00,43.5,0.4,30.24,ENE,77,0.0,0.0,13,0.00,,---,0.00,VWS V14.01,2013-04-19 02:01:00,
2013-04-18 19:06:00,43.0,0.4,30.24,NNE,27,0.0,0.0,14,0.00,,---,0.00,VWS V14.01,2013-04-19 02:06:00,
2013-04-18 19:11:00,42.4,0.4,30.24,NNE,27,0.0,0.0,15,0.00,,---,0.00,VWS V14.01,2013-04-19 02:11:00,
2013-04-18 19:16:00,41.8,0.4,30.24,East,92,0.0,0.0,15,0.00,,---,0.00,VWS V14.01,2013-04-19 02:16:00,
2013-04-18 19:21:00,41.2,0.4,30.24,East,97,0.0,0.0,15,0.00,,---,0.00,VWS V14.01,2013-04-19 02:21:00,
2013-04-18 19:26:00,40.5,0.4,30.25,East,97,0.0,0.0,15,0.00,,---,0.00,VWS V14.01,2013-04-19 02:26:00,
2013-04-18 19:31:00,39.8,0.4,30.25,SSE,153,0.0,0.0,16,0.00,,---,0.00,VWS V14.01,2013-04-19 02:31:00,
2013-04-18 19:36:00,39.1,0.4,30.25,SSE,153,0.0,0.0,16,0.00,,---,0.00,VWS V14.01,2013-04-19 02:36:00,
2013-04-18 19:41:00,38.6,0.4,30.25,SSE,153,0.0,0.0,16,0.00,,---,0.00,VWS V14.01,2013-04-19 02:41:00,
2013-04-18 19:47:00,38.0,0.4,30.25,SSE,153,0.0,0.0,17,0.00,,---,0.00,VWS V14.01,2013-04-19 02:47:00,
2013-04-18 19:52:00,37.5,0.4,30.25,SSE,153,0.0,0.0,17,0.00,,---,0.00,VWS V14.01,2013-04-19 02:52:00,
2013-04-18 19:57:00,37.1,0.4,30.25,SSE,153,0.0,0.0,18,0.00,,---,0.00,VWS V14.01,2013-04-19 02:57:00,
2013-04-18 20:02:00,36.7,0.4,30.26,SSE,153,0.0,0.0,18,0.00,,---,0.00,VWS V14.01,2013-04-19 03:02:00,
2013-04-18 20:07:00,36.3,0.4,30.26,East,91,0.0,2.0,17,0.00,,---,0.00,VWS V14.01,2013-04-19 03:07:00,
2013-04-18 20:12:00,36.4,0.4,30.26,SE,145,0.0,0.0,17,0.00,,---,0.00,VWS V14.01,2013-04-19 03:12:00,
2013-04-18 20:17:00,36.3,0.4,30.26,SE,145,0.0,0.0,17,0.00,,---,0.00,VWS V14.01,2013-04-19 03:17:00,
2013-04-18 20:22:00,36.2,0.4,30.27,SE,145,0.0,0.0,17,0.00,,---,0.00,VWS V14.01,2013-04-19 03:22:00,
2013-04-18 20:27:00,35.8,0.4,30.27,SE,145,0.0,0.0,18,0.00,,---,0.00,VWS V14.01,2013-04-19 03:27:00,
2013-04-18 20:32:00,35.5,0.4,30.27,SE,143,0.0,0.0,18,0.00,,---,0.00,VWS V14.01,2013-04-19 03:32:00,
2013-04-18 20:37:00,35.8,0.4,30.27,SE,141,0.0,0.0,18,0.00,,---,0.00,VWS V14.01,2013-04-19 03:37:00,
2013-04-18 20:42:00,36.3,0.4,30.27,East,87,0.0,1.0,17,0.00,,---,0.00,VWS V14.01,2013-04-19 03:42:00,
2013-04-18 20:47:00,36.8,0.4,30.28,SE,125,0.0,0.0,17,0.00,,---,0.00,VWS V14.01,2013-04-19 03:47:00,
2013-04-18 20:52:00,36.6,0.4,30.28,SE,143,0.0,0.0,17,0.00,,---,0.00,VWS V14.01,2013-04-19 03:52:00,
2013-04-18 20:57:00,36.1,0.4,30.28,SE,143,0.0,0.0,18,0.00,,---,0.00,VWS V14.01,2013-04-19 03:57:00,
2013-04-18 21:01:00,35.6,0.4,30.28,SE,143,0.0,0.0,19,0.00,,---,0.00,VWS V14.01,2013-04-19 04:01:00,
2013-04-18 21:02:00,35.5,0.4,30.28,SE,143,0.0,0.0,19,0.00,,---,0.00,VWS V14.01,2013-04-19 04:02:00,
2013-04-18 21:03:00,35.4,0.4,30.28,SE,143,0.0,0.0,19,0.00,,---,0.00,VWS V14.01,2013-04-19 04:03:00,
2013-04-18 21:05:00,35.1,0.4,30.28,SE,143,0.0,0.0,20,0.00,,---,0.00,VWS V14.01,2013-04-19 04:05:00,
2013-04-18 21:10:00,34.1,0.4,30.28,SE,143,0.0,0.0,22,0.00,,---,0.00,VWS V14.01,2013-04-19 04:10:00,
2013-04-18 21:15:00,33.2,0.4,30.29,SE,143,0.0,0.0,22,0.00,,---,0.00,VWS V14.01,2013-04-19 04:15:00,
2013-04-18 21:20:00,32.4,0.4,30.29,SE,143,0.0,0.0,23,0.00,,---,0.00,VWS V14.01,2013-04-19 04:20:00,
2013-04-18 21:25:00,31.8,0.4,30.29,SE,143,0.0,0.0,23,0.00,,---,0.00,VWS V14.01,2013-04-19 04:25:00,
2013-04-18 21:30:00,32.1,0.4,30.29,SSE,148,0.0,0.0,21,0.00,,---,0.00,VWS V14.01,2013-04-19 04:30:00,
2013-04-18 21:35:00,31.9,0.4,30.29,ESE,111,0.0,0.0,24,0.00,,---,0.00,VWS V14.01,2013-04-19 04:35:00,
2013-04-18 21:40:00,31.5,0.4,30.29,ESE,111,0.0,0.0,23,0.00,,---,0.00,VWS V14.01,2013-04-19 04:40:00,
2013-04-18 21:45:00,31.0,0.4,30.29,ESE,110,0.0,0.0,24,0.00,,---,0.00,VWS V14.01,2013-04-19 04:45:00,
2013-04-18 21:50:00,30.6,0.4,30.30,SSE,155,0.0,0.0,25,0.00,,---,0.00,VWS V14.01,2013-04-19 04:50:00,
2013-04-18 21:55:00,30.1,0.4,30.30,SSE,155,0.0,0.0,26,0.00,,---,0.00,VWS V14.01,2013-04-19 04:55:00,
2013-04-18 22:00:00,29.8,0.4,30.29,SSE,167,0.0,0.0,25,0.00,,---,0.00,VWS V14.01,2013-04-19 05:00:00,
2013-04-18 22:05:00,30.2,0.4,30.30,SSE,163,0.0,0.0,25,0.00,,---,0.00,VWS V14.01,2013-04-19 05:05:00,
2013-04-18 22:10:00,30.3,0.4,30.30,SSE,163,0.0,0.0,25,0.00,,---,0.00,VWS V14.01,2013-04-19 05:10:00,
2013-04-18 22:16:00,30.1,0.4,30.30,SSE,163,0.0,0.0,25,0.00,,---,0.00,VWS V14.01,2013-04-19 05:16:00,
2013-04-18 22:21:00,30.0,0.4,30.30,SSE,163,0.0,0.0,24,0.00,,---,0.00,VWS V14.01,2013-04-19 05:21:00,
2013-04-18 22:26:00,29.7,0.4,30.30,SSE,163,0.0,0.0,24,0.00,,---,0.00,VWS V14.01,2013-04-19 05:26:00,
2013-04-18 22:31:00,29.3,0.4,30.30,SSE,163,0.0,0.0,26,0.00,,---,0.00,VWS V14.01,2013-04-19 05:31:00,
2013-04-18 22:36:00,28.9,0.4,30.30,SSE,163,0.0,0.0,26,0.00,,---,0.00,VWS V14.01,2013-04-19 05:36:00,
2013-04-18 22:41:00,28.6,0.4,30.30,South,172,0.0,0.0,25,0.00,,---,0.00,VWS V14.01,2013-04-19 05:41:00,
2013-04-18 22:46:00,28.5,0.4,30.30,South,172,0.0,0.0,25,0.00,,---,0.00,VWS V14.01,2013-04-19 05:46:00,
2013-04-18 22:51:00,28.6,0.4,30.30,South,172,0.0,0.0,25,0.00,,---,0.00,VWS V14.01,2013-04-19 05:51:00,
2013-04-18 22:56:00,28.7,0.4,30.30,South,172,0.0,0.0,25,0.00,,---,0.00,VWS V14.01,2013-04-19 05:56:00,
2013-04-18 23:01:00,28.8,0.4,30.30,South,172,0.0,0.0,24,0.00,,---,0.00,VWS V14.01,2013-04-19 06:01:00,
2013-04-18 23:06:00,28.9,0.4,30.30,South,172,0.0,0.0,24,0.00,,---,0.00,VWS V14.01,2013-04-19 06:06:00,
2013-04-18 23:11:00,28.9,0.4,30.30,South,172,0.0,0.0,25,0.00,,---,0.00,VWS V14.01,2013-04-19 06:11:00,
2013-04-18 23:16:00,28.6,0.4,30.30,South,172,0.0,0.0,25,0.00,,---,0.00,VWS V14.01,2013-04-19 06:16:00,
2013-04-18 23:21:00,28.6,0.4,30.30,South,172,0.0,0.0,25,0.00,,---,0.00,VWS V14.01,2013-04-19 06:21:00,
2013-04-18 23:26:00,28.8,0.4,30.30,South,172,0.0,0.0,26,0.00,,---,0.00,VWS V14.01,2013-04-19 06:26:00,
2013-04-18 23:31:00,28.7,0.4,30.30,South,172,0.0,0.0,26,0.00,,---,0.00,VWS V14.01,2013-04-19 06:31:00,
2013-04-18 23:36:00,28.6,0.4,30.30,South,172,0.0,0.0,26,0.00,,---,0.00,VWS V14.01,2013-04-19 06:36:00,
2013-04-18 23:41:00,28.2,0.4,30.30,South,172,0.0,0.0,26,0.00,,---,0.00,VWS V14.01,2013-04-19 06:41:00,
2013-04-18 23:46:00,28.1,0.4,30.29,South,172,0.0,0.0,27,0.00,,---,0.00,VWS V14.01,2013-04-19 06:46:00,
2013-04-18 23:51:00,27.8,0.4,30.29,South,172,0.0,0.0,26,0.00,,---,0.00,VWS V14.01,2013-04-19 06:51:00,
2013-04-18 23:56:00,27.3,0.4,30.29,South,172,0.0,0.0,28,0.00,,---,0.00,VWS V14.01,2013-04-19 06:56:00,